AirNav   Everest Fuels
 
 1588 users online  

Y47 Oakland Southwest Airport
New Hudson, Michigan, USA

GOING TO NEW HUDSON?


FAA INFORMATION EFFECTIVE 08 SEPTEMBER 2022

Location

FAA Identifier: Y47
Lat/Long: 42-30-11.2460N 083-37-25.3250W
42-30.187433N 083-37.422083W
42.5031239,-83.6237014
(estimated)
Elevation: 926.1 ft. / 282 m (estimated)
Variation: 07W (2020)
From city: 1 mile SW of NEW HUDSON, MI
Time zone: UTC -4 (UTC -5 during Standard Time)
Zip code: 48165

Airport Operations

Airport use: Open to the public
Activation date: 10/1946
Control tower: no
ARTCC: CLEVELAND CENTER
FSS: LANSING FLIGHT SERVICE STATION
NOTAMs facility: LAN (NOTAM-D service available)
Attendance: MON-FRI 0830-1700, ALL SAT-SUN ON CALL
Wind indicator: lighted
Segmented circle: yes
Lights: ACTVT LIRL RWY 08/26 - CTAF. VASI RWY 08 & 26 OTS INDEFLY.
Beacon: white-green (lighted land airport)
Operates sunset to sunrise.

Airport Communications

CTAF/UNICOM: 122.7
DETROIT APPROACH: 132.35
DETROIT DEPARTURE: 132.35
WX ASOS at PTK (13 nm NE): 125.025 (248-886-8551)
WX ASOS at YIP (16 nm S): PHONE 734-961-6843
WX AWOS-3 at OZW (18 nm NW): 118.875 (517-546-4450)
WX ASOS at ARB (18 nm S): PHONE 734-668-7173
WX AWOS-3 at VLL (20 nm E): 119.475 (248-288-4649)

Nearby radio navigation aids

VOR radial/distance  VOR name  Freq  Var
SVMr350/5.8SALEM VORTAC114.3003W
DXOr333/20.8DETROIT VOR/DME113.4006W
CRLr348/28.3CARLETON VOR/DME115.7003W
FNTr175/28.3FLINT VORTAC116.9006W

 
NDB name  Hdg/Dist  Freq  Var  ID
TECUMSEH028/30.523906WTCU - -.-. ..-
GROSSE ILE326/31.941907WRYS .-. -.-- ...

Airport Services

Fuel available: 100LL
100LL:AVBL SELF SVC.
Parking: hangars and tiedowns
Bottled oxygen: NONE
Bulk oxygen: NONE

Runway Information

Runway 8/26

Dimensions: 3128 x 40 ft. / 953 x 12 m
Surface: asphalt, in excellent condition
Runway edge lights: low intensity
RUNWAY 8  RUNWAY 26
Latitude: 42-30.104963N42-30.269903N
Longitude: 083-37.751758W083-37.092397W
Elevation: 920.9 ft.926.1 ft.
Traffic pattern: leftleft
Runway heading: 078 magnetic, 071 true258 magnetic, 251 true
Displaced threshold: 867 ft.864 ft.
Markings: basic, in good conditionbasic, in good condition
Visual slope indicator: 2-box VASI on right (4.00 degrees glide path)2-box VASI on left (4.00 degrees glide path)
Runway end identifier lights: nono
Touchdown point: yes, no lightsyes, no lights
Obstructions: 10 ft. brush, 200 ft. from runway, 125 ft. left and right of centerline, 1:1 slope to clear
-4 FT DITCH, 40 FT DIST; SCATTERED 5-30 FT TREES & BRUSH, 0-199 FT DIST, 125 FT L & R.
73 ft. trees, 200 ft. from runway, 125 ft. right of centerline, 1:1 slope to clear
15-40 FT TREES & BRUSH, 0-90 FT DIST, 110 FT L.

Airport Ownership and Management from official FAA records

Ownership: Publicly-owned
Owner: OAKLAND COUNTY
57751 PONTIAC TRL
NEW HUDSON, MI 48165-8700
Phone 248-437-2333
Manager: CHERYL BUSH
57751 PONTIAC TRL
NEW HUDSON, MI 48165-8700
Phone 248-666-3900

Airport Operational Statistics

Aircraft based on the field: 43
Single engine airplanes: 40
Multi engine airplanes: 1
Helicopters: 2
    
Aircraft operations: avg 36/day *
50% transient general aviation
50% local general aviation
* for 12-month period ending 31 December 2021

Additional Remarks

TREES & BRUSH IN PRIMARY SFC 70-120 FT L & R.
FOR CD CTC DETROIT APCH AT 734-955-1404.
DEER & LRG BIRDS ON & INVOF ARPT.

Instrument Procedures

NOTE: All procedures below are presented as PDF files. If you need a reader for these files, you should download the free Adobe Reader.

NOT FOR NAVIGATION. Please procure official charts for flight.
FAA instrument procedures published for use from 8 September 2022 at 0901Z to 6 October 2022 at 0900Z.

 
IAPs - Instrument Approach Procedures
VOR OR GPS-A   download (153KB)
NOTE: Special Take-Off Minimums/Departure Procedures apply   download (255KB)

Other nearby airports with instrument procedures:

1D2 - Canton-Plymouth-Mettetal Airport (12 nm SE)
KPTK - Oakland County International Airport (13 nm NE)
KYIP - Willow Run Airport (16 nm S)
KOZW - Livingston County Spencer J Hardy Airport (18 nm NW)
KARB - Ann Arbor Municipal Airport (18 nm S)
9G2 - Price's Airport (19 nm N)
KVLL - Oakland/Troy Airport (20 nm E)
 
Loc | Ops | Rwys | IFR | FBO | Links
Com | Nav | Svcs | Stats | Notes
Area around Y47 (Oakland Southwest Airport)
 
Road maps at: MapQuest Bing Google
 
Aerial photo
WARNING: Photo may not be current or correct
Aerial photo of Y47 (Oakland Southwest Airport)
Photo by Jeff Franks
Photo taken 13-Jun-2013
looking south.

Do you have a better or more recent aerial photo of Oakland Southwest Airport that you would like to share? If so, please send us your photo.

 
Sectional chart

 
Airport distance calculator
Flying to Oakland Southwest Airport? Find the distance to fly.

From to Y47

Sunrise and sunset
Times for 29-Sep-2022
 Local
(UTC-4)
 Zulu
(UTC)
Morning civil twilight07:0211:02
Sunrise07:3011:30
Sunset19:1923:19
Evening civil twilight19:4723:47

Current date and time
Zulu (UTC)  29-Sep-2022 18:13:53
Local (UTC-4)  29-Sep-2022 14:13:53
 
METAR
KPTK 
13nm NE 
291753Z 33004KT 10SM BKN028 13/05 A3051 RMK AO2 SLP334 T01280050 10128 20094 58011
KOZW 
17nm NW 
291755Z AUTO 04003KT 10SM OVC025 13/06 A3051 RMK AO2 T01250063 10125 20092
KYIP 
17nm S 
291753Z 00000KT 10SM OVC037 16/05 A3051 RMK AO2 SLP329 T01610050 10161 20072 58010
KARB 
18nm S 
734-668-7173
291753Z VRB03KT 10SM OVC034 14/06 A3049 RMK AO2 SLP328 T01390056 10144 20033 58010
KVLL 
20nm E 
291755Z AUTO 00000KT 10SM OVC035 14/06 A3052 RMK AO2 T01370056 10141 20090
KDTW 
21nm SE 
291753Z 04005KT 10SM OVC040 14/06 A3050 RMK AO2 SLP331 T01440056 10156 20089 58010
TAF
KPTK 
13nm NE 
291737Z 2918/3018 36005KT P6SM BKN028 TEMPO 2918/2920 SCT040 FM292000 05005KT P6SM SCT040 FM300000 VRB02KT P6SM SKC FM300800 00000KT 1SM BR BKN002 FM301300 07006KT P6SM SCT250
KYIP 
17nm S 
291737Z 2918/3018 04004KT P6SM BKN040 TEMPO 2918/2920 SCT040 FM292000 05005KT P6SM SCT040 FM292200 09004KT P6SM FEW045 FM300000 VRB02KT P6SM SKC FM300800 00000KT 2SM BR BKN002 FM301300 07006KT P6SM SCT250
NOTAMs
Click for the latest NOTAMs
NOTAMs are issued by the DoD/FAA and will open in a separate window not controlled by AirNav.

 

 
 

FBO, Fuel Providers, and Aircraft Ground Support

  
 Business Name 
 
 Contact 
 
 Services / Description 
 
Fuel Prices
 
Comments
  
Oakland Flight 248-446-9734
no information available

If you are affiliated with Oakland Flight and would like to show here your services, contact info, web link, logo, and more, click here
100LL
SS $7.30 
 Updated 24-Aug-2022
 
   write
M Fuels 313-949-0004
no information available

If you are affiliated with M Fuels and would like to show here your services, contact info, web link, logo, and more, click here
100LL
SS $7.30 
 Updated 17-Aug-2022
 
   write
SS=Self service
Update Fuel Prices
 

Would you like to see your business listed on this page?

 If your business provides an interesting product or service to pilots, flight crews, aircraft, or users of the Oakland Southwest Airport, you should consider listing it here.  To start the listing process, click on the button below
 
Add a business
 

Other Pages about Oakland Southwest Airport

www.oakgov.com/...
Page from the Michigan Airport Directory (PDF)
 
Update a link
 
Copyright © AirNav, LLC. All rights reserved. Privacy Policy  Contact